Time;durP1;ratioP1;P1;durP2;ratioP2;P2;SDS_P1;SDS_P2;PMS_P1;PMS_P2;Temp;Humidity;BMP_temperature;BMP_pressure;BME280_temperature;BME280_humidity;BME280_pressure;Samples;Min_cycle;Max_cycle;Signal;HPM_P1;HPM_P2
2022/10/17 00:00:31;;;;;;;8.07;4.57;;;;;;;13.99;100.00;98622.56;5016708;28;20223;-72
2022/10/17 00:02:58;;;;;;;5.97;3.80;;;;;;;13.98;100.00;98626.25;5016766;28;20206;-72
2022/10/17 00:05:24;;;;;;;5.87;4.30;;;;;;;13.99;100.00;98633.25;5016907;28;20233;-72
2022/10/17 00:07:52;;;;;;;8.27;4.13;;;;;;;13.95;100.00;98633.91;5016638;28;20210;-72
2022/10/17 00:10:19;;;;;;;7.60;4.37;;;;;;;13.94;100.00;98630.44;5016473;28;20226;-72
2022/10/17 00:12:45;;;;;;;6.33;4.27;;;;;;;13.88;100.00;98631.31;5016535;28;20207;-72
2022/10/17 00:15:15;;;;;;;5.30;4.13;;;;;;;13.89;100.00;98632.94;5016230;28;20218;-72
2022/10/17 00:17:42;;;;;;;4.57;3.93;;;;;;;13.86;100.00;98638.75;5016510;28;20202;-72
2022/10/17 00:20:09;;;;;;;6.73;3.80;;;;;;;13.87;100.00;98635.03;5016394;28;20238;-72
2022/10/17 00:22:35;;;;;;;7.67;3.97;;;;;;;13.85;100.00;98636.31;5016393;28;20206;-72
2022/10/17 00:25:01;;;;;;;5.90;4.13;;;;;;;13.83;100.00;98641.06;5016380;28;20203;-72
2022/10/17 00:27:28;;;;;;;6.53;4.00;;;;;;;13.82;100.00;98636.75;5016275;28;20207;-72
2022/10/17 00:29:54;;;;;;;7.10;4.67;;;;;;;13.80;100.00;98644.19;5016064;28;20227;-72
2022/10/17 00:32:20;;;;;;;6.67;4.10;;;;;;;13.77;100.00;98645.44;5015920;28;20580;-72
2022/10/17 00:34:47;;;;;;;9.47;4.10;;;;;;;13.74;100.00;98645.91;5016057;28;20206;-72
2022/10/17 00:37:13;;;;;;;6.87;4.43;;;;;;;13.72;100.00;98645.31;5015811;28;20666;-72
2022/10/17 00:39:39;;;;;;;7.33;3.80;;;;;;;13.68;100.00;98654.81;5015678;28;20562;-72
2022/10/17 00:42:06;;;;;;;6.80;4.20;;;;;;;13.66;100.00;98651.53;5015996;28;20215;-72
2022/10/17 00:44:32;;;;;;;6.33;4.00;;;;;;;13.68;100.00;98648.63;5015960;28;20206;-72
2022/10/17 00:47:03;;;;;;;4.70;3.83;;;;;;;13.62;100.00;98647.69;5015610;28;20674;-72
2022/10/17 00:49:34;;;;;;;6.13;3.73;;;;;;;13.60;100.00;98644.41;5015905;28;20206;-72
2022/10/17 00:52:04;;;;;;;7.33;3.30;;;;;;;13.56;100.00;98637.88;5015829;28;20566;-72
2022/10/17 00:54:34;;;;;;;5.70;3.50;;;;;;;13.56;100.00;98642.44;5016438;28;20198;-72
2022/10/17 00:57:01;;;;;;;4.40;3.30;;;;;;;13.55;100.00;98643.44;5015730;28;20202;-72
2022/10/17 00:59:29;;;;;;;8.47;3.83;;;;;;;13.54;100.00;98644.50;5014509;28;20207;-72
2022/10/17 01:02:17;;;;;;;5.40;3.23;;;;;;;13.55;100.00;98640.78;5014540;28;20206;-72
2022/10/17 01:04:46;;;;;;;9.07;4.10;;;;;;;13.56;100.00;98642.44;5015356;28;20211;-72
2022/10/17 01:07:12;;;;;;;3.27;2.97;;;;;;;13.53;100.00;98650.88;5015582;28;20203;-72
2022/10/17 01:09:41;;;;;;;7.50;3.70;;;;;;;13.51;100.00;98659.13;5015299;28;20207;-72
2022/10/17 01:12:24;;;;;;;5.97;3.40;;;;;;;13.53;100.00;98648.22;5015445;28;20209;-72
2022/10/17 01:14:51;;;;;;;3.43;3.03;;;;;;;13.56;100.00;98651.25;5015396;28;20214;-72
2022/10/17 01:17:37;;;;;;;5.43;3.10;;;;;;;13.49;100.00;98649.69;5015341;28;20191;-72
2022/10/17 01:20:18;;;;;;;7.53;2.97;;;;;;;13.53;100.00;98648.22;5015299;28;20230;-72
2022/10/17 01:23:00;;;;;;;5.60;2.90;;;;;;;13.57;100.00;98647.53;5015233;28;20206;-72
2022/10/17 01:25:58;;;;;;;6.20;3.07;;;;;;;13.53;100.00;98648.22;5015207;28;20201;-72
2022/10/17 01:28:52;;;;;;;3.07;2.73;;;;;;;13.50;100.00;98641.47;5005824;28;20206;-72
2022/10/17 01:31:53;;;;;;;4.00;3.30;;;;;;;13.44;100.00;98645.03;5013784;28;20230;-72
2022/10/17 01:34:35;;;;;;;4.80;2.90;;;;;;;13.37;100.00;98649.63;5003679;28;20212;-72
2022/10/17 01:37:04;;;;;;;3.57;2.43;;;;;;;13.40;100.00;98648.34;5014692;28;20665;-72
2022/10/17 01:39:57;;;;;;;4.40;3.03;;;;;;;13.36;100.00;98649.84;5014588;28;20674;-72
2022/10/17 01:42:51;;;;;;;3.00;2.70;;;;;;;13.36;100.00;98641.81;5014942;28;20186;-72
2022/10/17 01:45:56;;;;;;;3.93;2.80;;;;;;;13.37;100.00;98646.94;5013722;28;20206;-72
2022/10/17 01:48:27;;;;;;;3.23;2.67;;;;;;;13.35;100.00;98651.72;5004083;28;20292;-72
2022/10/17 01:51:01;;;;;;;4.70;3.07;;;;;;;13.33;100.00;98643.09;5014681;28;20230;-72
2022/10/17 01:53:39;;;;;;;5.83;2.80;;;;;;;13.32;100.00;98637.97;5014725;28;20187;-72
2022/10/17 01:56:09;;;;;;;6.53;2.97;;;;;;;13.30;100.00;98642.72;5013537;28;20202;-72
2022/10/17 01:58:45;;;;;;;4.67;2.80;;;;;;;13.24;100.00;98640.91;5014925;28;20207;-72
2022/10/17 02:01:12;;;;;;;4.30;3.07;;;;;;;13.25;100.00;98626.56;5014543;28;20230;-72
2022/10/17 02:03:43;;;;;;;4.27;2.57;;;;;;;13.22;100.00;98627.81;4997106;28;20203;-72
2022/10/17 02:06:09;;;;;;;5.03;2.67;;;;;;;13.20;100.00;98629.88;5014523;28;20195;-72
2022/10/17 02:08:43;;;;;;;3.73;2.80;;;;;;;13.21;100.00;98628.81;5014451;28;20213;-72
2022/10/17 02:11:16;;;;;;;3.27;2.63;;;;;;;13.22;100.00;98630.47;5014584;28;20234;-72
2022/10/17 02:13:54;;;;;;;3.20;2.90;;;;;;;13.19;100.00;98624.75;5014482;28;20277;-72
2022/10/17 02:16:43;;;;;;;3.93;2.77;;;;;;;13.17;100.00;98626.84;5013955;28;20218;-72
2022/10/17 02:19:28;;;;;;;3.53;2.70;;;;;;;13.15;100.00;98628.94;5014663;28;20203;-72
2022/10/17 02:22:14;;;;;;;3.83;2.50;;;;;;;13.14;100.00;98637.94;5014116;28;20218;-72
2022/10/17 02:25:00;;;;;;;8.30;3.00;;;;;;;13.15;100.00;98632.38;5013946;28;20643;-72
2022/10/17 02:27:29;;;;;;;3.83;2.83;;;;;;;13.05;100.00;98639.28;5013865;28;20643;-72
2022/10/17 02:30:06;;;;;;;6.57;2.97;;;;;;;13.08;100.00;98639.66;5013870;28;20256;-72
2022/10/17 02:32:36;;;;;;;4.67;2.63;;;;;;;13.05;100.00;98640.09;5013836;28;20240;-72
2022/10/17 02:35:08;;;;;;;7.57;2.90;;;;;;;13.01;100.00;98633.56;5014275;28;20209;-72
2022/10/17 02:37:37;;;;;;;7.67;2.87;;;;;;;12.93;100.00;98639.16;5012915;28;20199;-72
2022/10/17 02:40:05;;;;;;;4.30;2.70;;;;;;;12.88;100.00;98648.88;5011937;28;20227;-72
2022/10/17 02:42:32;;;;;;;4.80;2.70;;;;;;;12.87;100.00;98648.03;5013874;28;20214;-72
2022/10/17 02:45:01;;;;;;;3.00;2.70;;;;;;;12.89;100.00;98637.94;5013895;28;20202;-72
2022/10/17 02:47:37;;;;;;;5.53;2.93;;;;;;;12.90;100.00;98644.94;5013831;28;20207;-72
2022/10/17 02:50:04;;;;;;;6.60;2.70;;;;;;;12.90;100.00;98644.94;5013712;28;20233;-72
2022/10/17 02:52:45;;;;;;;3.57;2.63;;;;;;;12.82;100.00;98647.88;5012375;28;20214;-72
2022/10/17 02:55:20;;;;;;;5.43;2.40;;;;;;;12.82;100.00;98655.06;4996949;28;20634;-72
2022/10/17 02:57:52;;;;;;;4.47;2.60;;;;;;;12.84;100.00;98642.31;5013835;28;20206;-72
2022/10/17 03:00:19;;;;;;;5.50;2.43;;;;;;;12.83;100.00;98646.84;5012507;28;20227;-72
2022/10/17 03:02:52;;;;;;;8.30;2.83;;;;;;;12.82;100.00;98652.38;5013586;28;20232;-72
2022/10/17 03:05:22;;;;;;;4.50;2.60;;;;;;;12.84;100.00;98647.66;5013660;28;20210;-72
2022/10/17 03:07:49;;;;;;;6.47;2.87;;;;;;;12.87;100.00;98649.88;5013722;28;20191;-72
2022/10/17 03:10:16;;;;;;;6.30;3.00;;;;;;;12.84;100.00;98648.47;5013492;28;20236;-72
2022/10/17 03:12:42;;;;;;;4.53;2.63;;;;;;;12.78;100.00;98644.00;5014468;28;20644;-72
2022/10/17 03:15:10;;;;;;;4.83;2.87;;;;;;;12.77;100.00;98644.22;5013206;28;20214;-72
2022/10/17 03:17:36;;;;;;;4.33;2.60;;;;;;;12.74;100.00;98656.16;5013310;28;20211;-72
2022/10/17 03:20:03;;;;;;;4.30;2.70;;;;;;;12.74;100.00;98653.47;5013297;28;20234;-72
2022/10/17 03:22:30;;;;;;;3.83;2.43;;;;;;;12.72;100.00;98660.06;5013538;28;20550;-72
2022/10/17 03:24:56;;;;;;;3.80;2.70;;;;;;;12.66;100.00;98656.41;5013532;28;20224;-72
2022/10/17 03:27:23;;;;;;;8.10;2.87;;;;;;;12.66;100.00;98658.28;5013448;28;20218;-72
2022/10/17 03:29:49;;;;;;;7.73;2.70;;;;;;;12.65;100.00;98664.63;5013146;28;20213;-72
2022/10/17 03:32:16;;;;;;;5.83;2.90;;;;;;;12.64;100.00;98666.50;5013089;28;20231;-72
2022/10/17 03:34:42;;;;;;;8.73;2.83;;;;;;;12.63;100.00;98662.19;5013316;28;20215;-72
2022/10/17 03:37:08;;;;;;;4.60;2.63;;;;;;;12.58;100.00;98669.22;5013357;28;20202;-72
2022/10/17 03:39:35;;;;;;;8.63;2.70;;;;;;;12.52;100.00;98676.22;5013201;28;20237;-72
2022/10/17 03:42:01;;;;;;;4.20;2.80;;;;;;;12.50;100.00;98675.63;5013199;28;20209;-72
2022/10/17 03:44:27;;;;;;;6.23;2.93;;;;;;;12.50;100.00;98675.63;5013169;28;20221;-72
2022/10/17 03:46:54;;;;;;;4.17;3.00;;;;;;;12.51;100.00;98677.25;5012846;28;20217;-72
2022/10/17 03:49:20;;;;;;;8.07;3.80;;;;;;;12.56;100.00;98674.75;5012759;28;20217;-72
2022/10/17 03:51:46;;;;;;;12.23;3.63;;;;;;;12.61;100.00;98682.94;5015555;28;20236;-72
2022/10/17 03:54:13;;;;;;;4.93;3.17;;;;;;;12.64;100.00;98674.50;5016868;28;20216;-72
2022/10/17 03:56:39;;;;;;;8.30;3.63;;;;;;;12.66;100.00;98676.97;5016406;28;20210;-72
2022/10/17 03:59:06;;;;;;;6.43;3.30;;;;;;;12.68;100.00;98673.03;5016783;28;20210;-72
2022/10/17 04:01:32;;;;;;;8.07;3.50;;;;;;;12.68;100.00;98681.03;5016534;28;20252;-72
2022/10/17 04:03:58;;;;;;;7.53;3.70;;;;;;;12.66;100.00;98677.75;5016460;28;20210;-72
2022/10/17 04:06:25;;;;;;;8.53;3.60;;;;;;;12.66;100.00;98683.09;5016398;28;20225;-72
2022/10/17 04:08:51;;;;;;;8.80;3.70;;;;;;;12.68;100.00;98681.03;5016163;28;20582;-72
2022/10/17 04:11:20;;;;;;;7.37;3.60;;;;;;;12.68;100.00;98686.38;5016358;28;20234;-72
2022/10/17 04:13:47;;;;;;;6.27;3.50;;;;;;;12.68;100.00;98696.22;5016356;28;20203;-72
2022/10/17 04:16:16;;;;;;;6.63;3.30;;;;;;;12.66;100.00;98688.44;5016002;28;20221;-72
2022/10/17 04:18:43;;;;;;;7.07;3.70;;;;;;;12.64;100.00;98687.00;5016144;28;20213;-72
2022/10/17 04:21:10;;;;;;;11.03;3.77;;;;;;;12.62;100.00;98697.88;5015864;28;20219;-72
2022/10/17 04:23:36;;;;;;;7.60;3.70;;;;;;;12.59;100.00;98698.34;5015821;28;20211;-72
2022/10/17 04:26:04;;;;;;;6.17;3.40;;;;;;;12.62;100.00;98697.09;5015686;28;20218;-72
2022/10/17 04:28:31;;;;;;;7.27;3.40;;;;;;;12.54;100.00;98705.34;5015952;28;20573;-72
2022/10/17 04:31:05;;;;;;;4.17;3.30;;;;;;;12.55;100.00;98701.66;5015704;28;20238;-72
2022/10/17 04:33:33;;;;;;;7.97;3.47;;;;;;;12.56;100.00;98709.44;5016485;28;20201;-72
2022/10/17 04:36:01;;;;;;;5.50;3.40;;;;;;;12.54;100.00;98708.84;5016078;28;20214;-72
2022/10/17 04:38:28;;;;;;;6.27;3.50;;;;;;;12.50;100.00;98715.63;5015632;28;20213;-72
2022/10/17 04:40:57;;;;;;;8.37;3.43;;;;;;;12.52;100.00;98712.75;5015480;28;20227;-72
2022/10/17 04:43:24;;;;;;;7.23;3.90;;;;;;;12.50;100.00;98712.97;5009546;28;20664;-72
2022/10/17 04:45:50;;;;;;;9.20;3.60;;;;;;;12.52;100.00;98715.44;5008978;28;20205;-72
2022/10/17 04:48:16;;;;;;;10.33;4.47;;;;;;;12.53;100.00;98714.38;5012158;28;20218;-72
2022/10/17 04:51:00;;;;;;;9.30;3.73;;;;;;;12.51;100.00;98708.44;5007716;28;20259;-72
2022/10/17 04:53:27;;;;;;;7.00;4.07;;;;;;;12.53;100.00;98704.53;5015016;28;20656;-72
2022/10/17 04:55:54;;;;;;;5.97;3.90;;;;;;;12.56;100.00;98712.09;5015157;28;20210;-72
2022/10/17 04:58:20;;;;;;;4.53;3.60;;;;;;;12.56;100.00;98709.44;5015292;28;20208;-71
2022/10/17 05:00:47;;;;;;;8.77;3.73;;;;;;;12.57;100.00;98716.41;5014680;28;20240;-72
2022/10/17 05:03:13;;;;;;;8.00;3.73;;;;;;;12.53;100.00;98712.53;5014038;28;20220;-72
2022/10/17 05:05:41;;;;;;;6.37;3.10;;;;;;;12.49;100.00;98719.34;5014356;28;20213;-72
2022/10/17 05:08:09;;;;;;;5.57;3.43;;;;;;;12.50;100.00;98715.63;5015191;28;20203;-72
2022/10/17 05:10:38;;;;;;;6.43;3.80;;;;;;;12.50;100.00;98725.47;5014602;28;20229;-72
2022/10/17 05:13:05;;;;;;;7.73;3.60;;;;;;;12.50;100.00;98715.63;5014479;28;20665;-72
2022/10/17 05:15:31;;;;;;;7.23;4.13;;;;;;;12.52;100.00;98718.91;5014321;28;20222;-72
2022/10/17 05:17:57;;;;;;;6.23;3.80;;;;;;;12.53;100.00;98711.72;5015436;28;20565;-72
2022/10/17 05:20:24;;;;;;;9.63;4.00;;;;;;;12.54;100.00;98713.34;5014635;28;20234;-71
2022/10/17 05:22:51;;;;;;;8.60;3.73;;;;;;;12.54;100.00;98714.19;5014447;28;20202;-71
2022/10/17 05:25:17;;;;;;;6.87;3.80;;;;;;;12.53;100.00;98715.19;5014735;28;20218;-71
2022/10/17 05:27:44;;;;;;;11.30;3.80;;;;;;;12.56;100.00;98708.59;5015189;28;20214;-71
2022/10/17 05:30:10;;;;;;;7.70;3.77;;;;;;;12.56;100.00;98708.59;5014560;28;20229;-71
2022/10/17 05:32:36;;;;;;;6.10;4.30;;;;;;;12.57;100.00;98710.25;5014426;28;20245;-71
2022/10/17 05:35:03;;;;;;;6.63;3.97;;;;;;;12.58;100.00;98718.06;5014341;28;20274;-71
2022/10/17 05:37:31;;;;;;;7.43;3.60;;;;;;;12.63;100.00;98714.72;5014164;28;20254;-71
2022/10/17 05:39:58;;;;;;;6.13;3.47;;;;;;;12.61;100.00;98722.94;5014136;28;20229;-71
2022/10/17 05:42:24;;;;;;;8.63;3.77;;;;;;;12.63;100.00;98717.41;5014763;28;20210;-71
2022/10/17 05:44:51;;;;;;;9.50;4.33;;;;;;;12.62;100.00;98726.44;5014085;28;20644;-71
2022/10/17 05:47:17;;;;;;;6.27;3.53;;;;;;;12.59;100.00;98717.00;5013916;28;20570;-71
2022/10/17 05:49:44;;;;;;;6.97;4.10;;;;;;;12.58;100.00;98717.22;5013684;28;20214;-71
2022/10/17 05:52:10;;;;;;;9.37;4.73;;;;;;;12.59;100.00;98718.84;5013701;28;20705;-71
2022/10/17 05:54:36;;;;;;;8.97;4.50;;;;;;;12.57;100.00;98724.41;5013906;28;20594;-71
2022/10/17 05:57:03;;;;;;;8.97;4.33;;;;;;;12.56;100.00;98725.44;5013688;28;20636;-71
2022/10/17 05:59:29;;;;;;;5.80;4.20;;;;;;;12.56;100.00;98728.09;5014215;28;20220;-71
2022/10/17 06:01:55;;;;;;;10.30;4.20;;;;;;;12.54;100.00;98735.53;5013761;28;20202;-71
2022/10/17 06:04:22;;;;;;;11.90;4.20;;;;;;;12.56;100.00;98738.78;5014195;28;20208;-71
2022/10/17 06:06:48;;;;;;;8.73;4.30;;;;;;;12.56;100.00;98736.09;5013678;28;20210;-71
2022/10/17 06:09:14;;;;;;;12.27;4.30;;;;;;;12.57;100.00;98740.41;5014024;28;20316;-71
2022/10/17 06:11:41;;;;;;;5.93;3.97;;;;;;;12.59;100.00;98734.84;5013719;28;20236;-71
2022/10/17 06:14:08;;;;;;;6.77;3.73;;;;;;;12.63;100.00;98742.22;5013359;28;20214;-71
2022/10/17 06:16:34;;;;;;;5.20;4.07;;;;;;;12.63;100.00;98739.56;5013302;28;20360;-71
2022/10/17 06:19:00;;;;;;;8.67;3.90;;;;;;;12.65;100.00;98744.66;5013849;28;20220;-72
2022/10/17 06:21:27;;;;;;;6.10;3.60;;;;;;;12.70;100.00;98743.00;5013006;28;20222;-72
2022/10/17 06:23:54;;;;;;;12.03;4.27;;;;;;;12.70;100.00;98748.31;5013264;28;20213;-72
2022/10/17 06:26:20;;;;;;;10.30;3.83;;;;;;;12.68;100.00;98746.91;5013790;28;20209;-71
2022/10/17 06:28:47;;;;;;;9.80;3.87;;;;;;;12.67;100.00;98738.09;5013359;28;20209;-72
2022/10/17 06:31:15;;;;;;;10.07;4.27;;;;;;;12.76;100.00;98738.66;5013089;28;20590;-72
2022/10/17 06:33:42;;;;;;;9.77;4.07;;;;;;;12.76;100.00;98734.16;5013099;28;20217;-72
2022/10/17 06:36:12;;;;;;;7.33;4.20;;;;;;;12.80;100.00;98742.53;5013211;28;20209;-72
2022/10/17 06:38:38;;;;;;;6.70;4.17;;;;;;;12.84;100.00;98747.19;5013648;28;20229;-72
2022/10/17 06:41:18;;;;;;;7.10;4.30;;;;;;;12.87;100.00;98756.63;5013300;28;20226;-72
2022/10/17 06:43:45;;;;;;;9.03;3.53;;;;;;;12.88;100.00;98760.94;5014001;28;20205;-72
2022/10/17 06:46:13;;;;;;;9.93;3.80;;;;;;;12.94;100.00;98765.41;5013515;28;20237;-72
2022/10/17 06:48:39;;;;;;;5.27;3.57;;;;;;;12.98;100.00;98769.31;5013513;28;20217;-72
2022/10/17 06:51:08;;;;;;;6.90;3.60;;;;;;;13.02;100.00;98774.00;5013290;28;20241;-72
2022/10/17 06:53:35;;;;;;;7.77;3.90;;;;;;;13.04;100.00;98782.63;5013347;28;20281;-72
2022/10/17 06:56:03;;;;;;;10.27;4.30;;;;;;;13.10;100.00;98791.59;5013729;28;20210;-72
2022/10/17 06:58:31;;;;;;;5.70;4.00;;;;;;;13.14;100.00;98790.94;5012952;28;20211;-72
2022/10/17 07:01:02;;;;;;;6.33;3.80;;;;;;;13.18;100.00;98792.16;5013312;28;20240;-72
2022/10/17 07:03:29;;;;;;;4.83;3.47;;;;;;;13.22;100.00;98787.19;5013293;28;20557;-72
2022/10/17 07:05:56;;;;;;;7.27;3.60;;;;;;;13.28;100.00;98792.47;5013331;28;20206;-72
2022/10/17 07:08:23;;;;;;;5.80;3.50;;;;;;;13.35;100.00;98797.78;5013484;28;20209;-72
2022/10/17 07:10:50;;;;;;;4.50;3.50;;;;;;;13.40;100.00;98808.63;5013205;28;20232;-72
2022/10/17 07:13:16;;;;;;;8.47;3.70;;;;;;;13.47;100.00;98810.19;5013368;28;20669;-72
2022/10/17 07:15:43;;;;;;;6.80;3.83;;;;;;;13.59;100.00;98802.28;5013158;28;20222;-72
2022/10/17 07:18:09;;;;;;;8.17;3.90;;;;;;;13.69;100.00;98803.41;5013308;28;20206;-72
2022/10/17 07:20:36;;;;;;;6.43;3.60;;;;;;;13.72;100.00;98802.97;5013236;28;20230;-72
2022/10/17 07:23:03;;;;;;;6.83;3.47;;;;;;;13.85;100.00;98807.38;5013191;28;20202;-72
2022/10/17 07:25:30;;;;;;;5.03;3.13;;;;;;;13.83;100.00;98810.25;5013631;28;20210;-72
2022/10/17 07:27:57;;;;;;;6.80;3.43;;;;;;;13.91;100.00;98809.97;5017198;28;20214;-72
2022/10/17 07:30:23;;;;;;;8.87;3.70;;;;;;;13.98;100.00;98820.59;5016801;28;20732;-72
2022/10/17 07:32:53;;;;;;;6.93;3.87;;;;;;;14.04;100.00;98812.50;5016747;28;20242;-72
2022/10/17 07:35:20;;;;;;;8.37;3.90;;;;;;;14.15;100.00;98813.63;5017259;28;20261;-72
2022/10/17 07:37:46;;;;;;;9.53;3.87;;;;;;;14.23;100.00;98813.34;5016954;28;20261;-72
2022/10/17 07:40:13;;;;;;;7.57;3.90;;;;;;;14.38;100.00;98819.94;5016503;28;20242;-72
2022/10/17 07:42:39;;;;;;;13.73;4.33;;;;;;;14.40;100.00;98817.88;5016702;28;20203;-72
2022/10/17 07:45:06;;;;;;;10.70;3.70;;;;;;;14.49;100.00;98818.38;5016654;28;20696;-72
2022/10/17 07:47:34;;;;;;;6.50;3.40;;;;;;;14.63;100.00;98827.88;5016492;28;20210;-72
2022/10/17 07:50:01;;;;;;;5.90;3.60;;;;;;;14.75;100.00;98828.75;5016560;28;20226;-72
2022/10/17 07:52:27;;;;;;;6.93;3.43;;;;;;;14.81;100.00;98834.00;5016543;28;20227;-72
2022/10/17 07:54:53;;;;;;;6.87;3.67;;;;;;;14.96;100.00;98826.38;5016278;28;20217;-72
2022/10/17 07:57:20;;;;;;;4.50;3.70;;;;;;;15.00;100.00;98832.09;5016289;28;20375;-72
2022/10/17 07:59:47;;;;;;;6.00;3.63;;;;;;;15.06;100.00;98836.56;5016201;28;20206;-72
2022/10/17 08:02:27;;;;;;;7.20;3.67;;;;;;;15.01;100.00;98831.88;5016158;28;20731;-72
2022/10/17 08:04:54;;;;;;;3.47;2.80;;;;;;;15.12;100.00;98832.94;5016602;28;20214;-72
2022/10/17 08:07:22;;;;;;;7.77;3.23;;;;;;;15.13;100.00;98838.06;5016394;28;20210;-72
2022/10/17 08:09:48;;;;;;;7.57;3.70;;;;;;;15.34;100.00;98837.56;5016366;28;20213;-72
2022/10/17 08:12:15;;;;;;;8.83;3.33;;;;;;;15.42;100.00;98834.56;5016247;28;20226;-72
2022/10/17 08:14:42;;;;;;;6.97;3.03;;;;;;;15.53;100.00;98838.31;5015972;28;20210;-72
2022/10/17 08:17:09;;;;;;;8.97;3.23;;;;;;;15.52;100.00;98834.00;5016380;28;20198;-74
2022/10/17 08:19:39;;;;;;;5.03;3.20;;;;;;;15.55;100.00;98845.06;5016242;28;20206;-74
2022/10/17 08:22:06;;;;;;;9.47;3.70;;;;;;;15.64;100.00;98841.00;5016469;28;20245;-74
2022/10/17 08:24:33;;;;;;;8.50;3.90;;;;;;;15.72;100.00;98835.28;5016489;28;20218;-74
2022/10/17 08:26:59;;;;;;;7.90;3.80;;;;;;;15.72;100.00;98834.47;5016089;28;20214;-74
2022/10/17 08:29:26;;;;;;;13.63;3.60;;;;;;;15.75;100.00;98840.16;5015722;28;20260;-74
2022/10/17 08:31:52;;;;;;;6.20;3.40;;;;;;;15.95;100.00;98839.81;5015523;28;20720;-74
2022/10/17 08:34:19;;;;;;;7.47;3.80;;;;;;;15.91;100.00;98839.47;5015986;28;20214;-74
2022/10/17 08:36:45;;;;;;;5.90;3.20;;;;;;;15.97;100.00;98843.91;5015049;28;20215;-74
2022/10/17 08:39:12;;;;;;;5.03;3.33;;;;;;;15.97;100.00;98843.91;5014906;28;20211;-74
2022/10/17 08:41:50;;;;;;;9.87;3.10;;;;;;;15.94;100.00;98856.97;5015380;28;20223;-74
2022/10/17 08:44:58;;;;;;;5.60;3.30;;;;;;;16.11;100.00;98847.97;5015748;28;20194;-74
2022/10/17 08:47:34;;;;;;;8.23;3.30;;;;;;;16.25;100.00;98844.00;4955117;29;20627;-74
2022/10/17 08:50:03;;;;;;;6.33;3.00;;;;;;;16.25;100.00;98851.25;4954897;28;20833;-74
2022/10/17 08:52:49;;;;;;;7.27;3.13;;;;;;;16.37;100.00;98855.53;4988858;28;20226;-74
2022/10/17 08:55:23;;;;;;;3.63;3.23;;;;;;;16.44;100.00;98855.44;5015965;28;20198;-74
2022/10/17 08:57:49;;;;;;;11.50;3.73;;;;;;;16.50;100.00;98857.97;5015881;28;20191;-74
2022/10/17 09:00:19;;;;;;;7.37;3.40;;;;;;;16.83;100.00;98854.63;5014322;28;20241;-74
2022/10/17 09:03:05;;;;;;;7.90;3.70;;;;;;;16.82;100.00;98853.81;5015264;28;20214;-71
2022/10/17 09:05:37;;;;;;;6.93;3.23;;;;;;;17.16;99.15;98854.72;5014594;28;20210;-71
2022/10/17 09:08:28;;;;;;;7.63;3.30;;;;;;;17.36;95.12;98850.50;5015260;28;20195;-72
2022/10/17 09:11:09;;;;;;;9.57;3.80;;;;;;;17.48;96.53;98853.97;5015093;28;20234;-72
2022/10/17 09:14:19;;;;;;;10.10;3.30;;;;;;;17.54;96.95;98853.00;5015146;28;20214;-72
2022/10/17 09:17:15;;;;;;;7.40;3.13;;;;;;;17.62;95.88;98849.91;5013644;28;20692;-72
2022/10/17 09:20:09;;;;;;;7.07;3.37;;;;;;;17.50;99.58;98846.47;5013974;28;20202;-72
2022/10/17 09:22:49;;;;;;;8.37;3.10;;;;;;;17.71;95.93;98859.19;5013937;28;20183;-72
2022/10/17 09:25:18;;;;;;;5.67;2.90;;;;;;;17.65;94.69;98853.97;5014196;28;20186;-72
2022/10/17 09:27:49;;;;;;;5.00;3.20;;;;;;;17.74;93.58;98856.00;5014917;28;20202;-72
2022/10/17 09:30:33;;;;;;;8.13;3.10;;;;;;;17.90;93.09;98854.34;5014584;28;20223;-72
2022/10/17 09:33:01;;;;;;;5.10;3.00;;;;;;;17.84;95.56;98860.72;5015034;28;20237;-72
2022/10/17 09:35:29;;;;;;;3.40;2.80;;;;;;;17.85;95.93;98865.03;5014720;28;20217;-72
2022/10/17 09:37:55;;;;;;;7.23;2.80;;;;;;;17.88;94.34;98859.19;5014492;28;20305;-72
2022/10/17 09:40:31;;;;;;;10.80;2.93;;;;;;;18.00;94.83;98855.31;5014479;28;20337;-72
2022/10/17 09:43:00;;;;;;;9.23;3.60;;;;;;;18.16;92.05;98854.50;5014496;28;20198;-72
2022/10/17 09:45:32;;;;;;;7.10;3.10;;;;;;;18.20;94.47;98838.66;5014649;28;20214;-72
2022/10/17 09:48:29;;;;;;;10.53;3.33;;;;;;;18.27;91.86;98842.78;5015162;28;20294;-72
2022/10/17 09:50:56;;;;;;;8.90;3.33;;;;;;;18.34;93.99;98846.16;5013385;28;20234;-72
2022/10/17 09:53:52;;;;;;;4.93;3.27;;;;;;;18.35;91.64;98838.88;5014185;28;20314;-72
2022/10/17 09:56:20;;;;;;;8.13;3.27;;;;;;;18.51;91.16;98846.91;5012142;28;20559;-72
2022/10/17 09:58:53;;;;;;;8.37;3.17;;;;;;;18.74;90.50;98843.16;5014638;28;20210;-72
2022/10/17 10:01:28;;;;;;;6.20;3.00;;;;;;;18.97;90.73;98838.31;5013897;28;20717;-72
2022/10/17 10:04:11;;;;;;;8.33;3.30;;;;;;;18.97;89.06;98849.09;5014148;28;20297;-72
2022/10/17 10:06:38;;;;;;;4.23;3.40;;;;;;;18.88;90.71;98845.22;5014222;28;20195;-72
2022/10/17 10:09:06;;;;;;;7.30;2.97;;;;;;;18.87;89.92;98846.25;5014274;28;20571;-72
2022/10/17 10:11:44;;;;;;;8.07;3.33;;;;;;;18.99;90.38;98848.81;5013806;28;20234;-72
2022/10/17 10:14:13;;;;;;;7.33;2.90;;;;;;;19.09;87.94;98847.03;5013838;28;20226;-72
2022/10/17 10:16:45;;;;;;;4.07;2.40;;;;;;;19.20;88.45;98853.34;5013667;28;20210;-72
2022/10/17 10:19:26;;;;;;;5.73;2.90;;;;;;;19.30;88.91;98845.38;5013652;28;20697;-72
2022/10/17 10:21:57;;;;;;;10.27;3.50;;;;;;;19.50;87.51;98848.28;5013995;28;20241;-72
2022/10/17 10:24:26;;;;;;;7.70;2.90;;;;;;;19.50;88.01;98859.06;5013735;28;20566;-72
2022/10/17 10:26:54;;;;;;;8.77;2.90;;;;;;;19.69;89.10;98853.00;5013882;28;20217;-72
2022/10/17 10:29:36;;;;;;;10.40;3.17;;;;;;;19.73;88.67;98856.81;5013607;28;20257;-72
2022/10/17 10:32:21;;;;;;;9.17;3.20;;;;;;;19.82;87.89;98856.34;5013292;28;20218;-72
2022/10/17 10:34:56;;;;;;;8.47;2.93;;;;;;;20.06;86.26;98857.59;5013727;28;20197;-72
2022/10/17 10:37:26;;;;;;;7.93;3.53;;;;;;;20.29;86.54;98855.34;5013697;28;20201;-72
2022/10/17 10:39:54;;;;;;;7.27;3.10;;;;;;;20.40;84.65;98867.03;5012180;28;20226;-72
2022/10/17 10:42:25;;;;;;;13.03;3.37;;;;;;;20.47;82.17;98860.31;5013245;28;20206;-72
2022/10/17 10:44:53;;;;;;;6.73;3.27;;;;;;;20.45;83.09;98861.66;5013203;28;20191;-72
2022/10/17 10:47:26;;;;;;;4.37;2.83;;;;;;;20.48;83.13;98859.22;5013331;28;20217;-72
2022/10/17 10:50:07;;;;;;;6.50;2.97;;;;;;;20.65;84.22;98857.16;5013746;28;20233;-72
2022/10/17 10:52:46;;;;;;;5.30;2.93;;;;;;;20.92;80.97;98848.88;5013224;28;20207;-72
2022/10/17 10:55:45;;;;;;;7.23;2.40;;;;;;;21.10;76.76;98857.34;5013184;28;20650;-72
2022/10/17 10:58:27;;;;;;;6.17;2.70;;;;;;;21.13;75.49;98853.28;5002574;28;20217;-72
2022/10/17 11:00:55;;;;;;;7.60;2.70;;;;;;;21.15;77.99;98851.13;5012868;28;20227;-72
2022/10/17 11:03:51;;;;;;;6.57;2.80;;;;;;;21.40;76.46;98849.28;5013526;28;20206;-72
2022/10/17 11:06:25;;;;;;;8.90;2.77;;;;;;;21.62;74.09;98851.72;4988006;28;20214;-72
2022/10/17 11:09:34;;;;;;;6.07;2.60;;;;;;;21.82;71.26;98849.84;5013297;28;20191;-72
2022/10/17 11:12:11;;;;;;;5.83;2.43;;;;;;;21.75;74.51;98851.22;5011971;28;20206;-72
2022/10/17 11:14:51;;;;;;;6.67;2.80;;;;;;;21.86;73.78;98852.81;5011357;28;20678;-72
2022/10/17 11:17:30;;;;;;;7.03;2.67;;;;;;;21.75;73.56;98845.81;5013300;28;20213;-72
2022/10/17 11:20:09;;;;;;;3.93;2.33;;;;;;;21.96;73.42;98844.69;5013067;28;20740;-72
2022/10/17 11:22:44;;;;;;;5.07;2.65;;;;;;;22.06;73.14;98837.38;5013721;28;20290;-72
2022/10/17 11:25:28;;;;;;;3.20;2.67;;;;;;;21.91;74.68;98842.00;5013238;28;20197;-72
2022/10/17 11:27:55;;;;;;;8.02;2.85;;;;;;;21.84;73.65;98838.75;5013040;28;20195;-72
2022/10/17 11:30:26;;;;;;;9.27;2.95;;;;;;;21.76;72.85;98833.88;5013171;28;20223;-72
2022/10/17 11:32:57;;;;;;;10.25;2.65;;;;;;;21.87;73.64;98832.78;5012963;28;20214;-72
2022/10/17 11:35:29;;;;;;;3.95;2.70;;;;;;;21.95;73.33;98833.06;5013054;28;20191;-72
2022/10/17 11:38:16;;;;;;;8.80;2.70;;;;;;;21.73;73.93;98837.13;5013051;28;20195;-72
2022/10/17 11:40:46;;;;;;;7.43;2.95;;;;;;;21.89;74.44;98831.44;5013137;28;20230;-72
2022/10/17 11:43:30;;;;;;;8.25;3.83;;;;;;;21.79;75.25;98842.28;5012938;28;20195;-72
2022/10/17 11:46:03;;;;;;;6.97;3.30;;;;;;;21.83;74.38;98831.69;5012552;28;20195;-72